Dayton, VA (22821)

6:28 AM EST on January 27, 2015 (GMT -0500)
South Breeze - Dayton | Change Station
CLOSE
Current Station
Personal Weather Station
Location: Dayton, VA
Elevation: 1295 ft
Nearby Weather Stations

Elev 1295 ft 38.42 °N, 78.95 °W | Updated 3 minutes ago

Overcast
Overcast
26.7 °F
Feels Like 27 °F
N
0.0
Wind Variable Wind from NNE
Gusts 2.0 mph

Today
High -- | Low -- °F
--% Chance of Precip.
Yesterday
High -- | Low -- °F
Precip. -- in
7:25 AM 5:32 PM
First Quarter, 53% visible
Pressure 29.76 in
Visibility 10.0 miles
Clouds Mostly Cloudy 6000 ft
Overcast 7000 ft
Windchill 27 °F
Dew Point 22 °F
Humidity 82%
Rainfall -999.00 in
Snow Depth Not available.
UV 0 out of 12
Pollen .10 out of 12
Air Quality Not available.
Flu Activity Not available.
METAR KSHD 271115Z AUTO 03003KT 10SM BKN060 OVC070 M03/M05 A2976 RMK AO2 T10271046

More Conditions Fewer Conditions

Pressure 29.76 in
Visibility 10.0 miles
Clouds Mostly Cloudy 6000 ft
Overcast 7000 ft
Windchill 27 °F
Dew Point 22 °F
Humidity 82%
Rainfall -999.00 in
Snow Depth Not available.
UV 0 out of 12
Pollen .10 out of 12
Air Quality Not available.
Flu Activity Not available.
METAR KSHD 271115Z AUTO 03003KT 10SM BKN060 OVC070 M03/M05 A2976 RMK AO2 T10271046

More Conditions Fewer Conditions

10-Day Weather Forecast

Almanac

Astronomy

Jan. 27, 2015 Rise Set
Actual Time
Civil Twilight
Nautical Twilight
Astronomical Twilight
Moon
Length of Visible Light
Length of Day
Tomorrow will be .
, % of the Moon is Illuminated

Today's Extremes

State Highs State Lows

Community

WunderPhotos

Upload Photos

1,790,564 photos uploaded!

WunderBlogs® & News

Nearby

Air Quality

  Air Quality AQ Index Pollutant
Not available.

Snow Depth

Station Depth Elevation

Earthquake Activity

City Distance Mag. Time & Date
Minimum magnitude displayed is 2.5.

Coastal Water Temperatures

Place Temperature

Nearby Weather Stations